Terminal Aerodrome Forecast
Issued by NWS Cleveland, OH

Home | Current Version | Previous Version | Text Only | Print | Product List | Glossary Off
Versions: 1 2 3 4 5 6 7 8 9 10 11 12 13 14 15 16 17 18 19 20 21 22 23 24 25 26 27

521
FTUS41 KCLE 211116 AAC
TAFCLE
TAF AMD
KCLE 211116Z 2111/2212 25004KT 1SM BR OVC003
      TEMPO 2111/2113 1/2SM FG OVC002
     FM211400 28005KT P6SM BKN008
     FM211600 29010KT P6SM BKN015
     FM211800 28012KT P6SM SCT025
     FM220100 35014G22KT P6SM BKN035
     FM220800 35014G22KT P6SM BKN025=

USA.gov is the U.S. government's official web portal to all federal, state and local government web resources and services.